Time;durP1;ratioP1;P1;durP2;ratioP2;P2;SDS_P1;SDS_P2;PMS_P1;PMS_P2;Temp;Humidity;BMP_temperature;BMP_pressure;BME280_temperature;BME280_humidity;BME280_pressure;Samples;Min_cycle;Max_cycle;Signal;HPM_P1;HPM_P2
2021/12/10 00:00:04;;;;;;;6.00;4.97;;;;;;;;;;5003480;28;20301;-52
2021/12/10 00:02:34;;;;;;;5.50;4.93;;;;;;;;;;5010481;28;20340;-52
2021/12/10 00:05:01;;;;;;;5.50;5.00;;;;;;;;;;5010935;28;20589;-52
2021/12/10 00:07:28;;;;;;;5.30;4.80;;;;;;;;;;5009669;28;20208;-52
2021/12/10 00:09:58;;;;;;;6.77;5.13;;;;;;;;;;4994190;28;20214;-52
2021/12/10 00:12:26;;;;;;;6.23;4.73;;;;;;;;;;5001600;28;20244;-52
2021/12/10 00:14:53;;;;;;;6.80;4.90;;;;;;;;;;4989131;28;20189;-52
2021/12/10 00:17:21;;;;;;;5.53;4.90;;;;;;;;;;5010551;28;20676;-51
2021/12/10 00:19:50;;;;;;;5.03;4.53;;;;;;;;;;4993860;28;20202;-52
2021/12/10 00:22:21;;;;;;;5.33;4.43;;;;;;;;;;5002666;28;20179;-51
2021/12/10 00:24:49;;;;;;;5.07;4.57;;;;;;;;;;5005565;28;20189;-51
2021/12/10 00:27:21;;;;;;;5.57;4.63;;;;;;;;;;4992467;28;20187;-51
2021/12/10 00:29:50;;;;;;;5.33;4.83;;;;;;;;;;4977617;28;20703;-52
2021/12/10 00:32:28;;;;;;;7.50;4.73;;;;;;;;;;5005833;28;20183;-51
2021/12/10 00:34:54;;;;;;;5.17;4.67;;;;;;;;;;5000970;28;20273;-51
2021/12/10 00:37:22;;;;;;;5.67;5.03;;;;;;;;;;5005573;28;20386;-51
2021/12/10 00:39:52;;;;;;;4.80;4.30;;;;;;;;;;5009307;28;20665;-51
2021/12/10 00:42:21;;;;;;;5.70;4.87;;;;;;;;;;4969788;28;20185;-51
2021/12/10 00:44:47;;;;;;;5.27;4.77;;;;;;;;;;5007301;28;20418;-52
2021/12/10 00:47:14;;;;;;;5.00;4.10;;;;;;;;;;4991684;28;20179;-51
2021/12/10 00:49:40;;;;;;;4.70;4.20;;;;;;;;;;4999964;28;20214;-52
2021/12/10 00:52:09;;;;;;;5.73;4.87;;;;;;;;;;5010104;28;20245;-52
2021/12/10 00:54:36;;;;;;;6.07;5.27;;;;;;;;;;4984831;28;20213;-52
2021/12/10 00:57:03;;;;;;;4.67;3.97;;;;;;;;;;5007403;28;20572;-51
2021/12/10 00:59:29;;;;;;;5.23;4.60;;;;;;;;;;5030445;28;20217;-52
2021/12/10 01:01:55;;;;;;;7.73;5.40;;;;;;;;;;5028349;28;20259;-52
2021/12/10 01:04:25;;;;;;;6.23;4.87;;;;;;;;;;5023703;28;20312;-52
2021/12/10 01:06:52;;;;;;;5.37;4.87;;;;;;;;;;4988806;28;20208;-52
2021/12/10 01:09:20;;;;;;;5.20;4.70;;;;;;;;;;5012521;28;20395;-52
2021/12/10 01:11:49;;;;;;;5.83;4.50;;;;;;;;;;5014205;28;20182;-52
2021/12/10 01:14:22;;;;;;;5.73;5.10;;;;;;;;;;5029156;28;20190;-52
2021/12/10 01:25:26;;;;;;;5.87;5.27;;;;;;;;;;5015639;28;20181;-52
2021/12/10 01:27:52;;;;;;;5.70;5.10;;;;;;;;;;5013201;28;20537;-52
2021/12/10 01:30:31;;;;;;;6.37;4.87;;;;;;;;;;5011082;28;20224;-52
2021/12/10 01:32:59;;;;;;;5.40;4.90;;;;;;;;;;5012755;28;20189;-52
2021/12/10 01:35:28;;;;;;;7.63;5.40;;;;;;;;;;5003770;28;20595;-52
2021/12/10 01:37:55;;;;;;;6.67;5.43;;;;;;;;;;5017690;28;20217;-52
2021/12/10 01:40:24;;;;;;;7.10;5.07;;;;;;;;;;5027475;28;20881;-52
2021/12/10 01:42:53;;;;;;;5.33;4.63;;;;;;;;;;5029670;28;20172;-52
2021/12/10 01:45:22;;;;;;;6.27;5.20;;;;;;;;;;5027889;28;20243;-52
2021/12/10 01:48:08;;;;;;;5.63;4.83;;;;;;;;;;4990294;28;20182;-52
2021/12/10 01:50:35;;;;;;;5.00;4.50;;;;;;;;;;5002047;28;20189;-52
2021/12/10 01:53:03;;;;;;;6.50;4.17;;;;;;;;;;5027786;28;20217;-52
2021/12/10 01:55:30;;;;;;;5.20;4.37;;;;;;;;;;5011462;28;20706;-52
2021/12/10 01:57:58;;;;;;;4.60;4.13;;;;;;;;;;5010701;28;20181;-52
2021/12/10 02:00:28;;;;;;;5.23;4.53;;;;;;;;;;5027484;28;20679;-52
2021/12/10 02:02:54;;;;;;;5.47;4.20;;;;;;;;;;5026692;28;20224;-52
2021/12/10 02:05:21;;;;;;;5.10;4.43;;;;;;;;;;5028226;28;20182;-52
2021/12/10 02:07:48;;;;;;;5.70;4.53;;;;;;;;;;5026923;28;20239;-52
2021/12/10 02:10:18;;;;;;;7.30;5.13;;;;;;;;;;5010121;28;20177;-52
2021/12/10 02:12:46;;;;;;;6.63;4.47;;;;;;;;;;5021495;28;20190;-52
2021/12/10 02:15:13;;;;;;;7.33;4.80;;;;;;;;;;5020017;28;20211;-52
2021/12/10 02:17:45;;;;;;;5.97;4.90;;;;;;;;;;5026818;28;20276;-52
2021/12/10 02:20:13;;;;;;;8.80;5.00;;;;;;;;;;5028365;28;20285;-52
2021/12/10 02:22:40;;;;;;;6.07;4.37;;;;;;;;;;5020700;28;20182;-52
2021/12/10 02:25:06;;;;;;;6.67;4.07;;;;;;;;;;5025095;28;20180;-52
2021/12/10 02:27:33;;;;;;;4.97;4.30;;;;;;;;;;5028046;28;20182;-52
2021/12/10 02:30:00;;;;;;;6.70;4.23;;;;;;;;;;5027865;28;20190;-52
2021/12/10 02:32:27;;;;;;;5.77;4.57;;;;;;;;;;5026255;28;20946;-52
2021/12/10 02:34:56;;;;;;;5.13;4.43;;;;;;;;;;5017602;28;20194;-52
2021/12/10 02:37:22;;;;;;;5.90;4.10;;;;;;;;;;5028498;28;20224;-52
2021/12/10 02:39:48;;;;;;;6.67;5.57;;;;;;;;;;5026991;28;20197;-52
2021/12/10 02:42:14;;;;;;;5.67;4.60;;;;;;;;;;5028841;28;20170;-52
2021/12/10 02:44:41;;;;;;;5.13;4.43;;;;;;;;;;5015145;28;20206;-52
2021/12/10 02:47:07;;;;;;;7.30;4.57;;;;;;;;;;5027397;28;20182;-52
2021/12/10 02:49:34;;;;;;;5.07;4.17;;;;;;;;;;5010081;28;20185;-52
2021/12/10 02:52:02;;;;;;;5.73;3.70;;;;;;;;;;5009864;28;20184;-52
2021/12/10 02:54:36;;;;;;;6.63;4.20;;;;;;;;;;5011578;28;20225;-52
2021/12/10 02:57:04;;;;;;;4.93;3.90;;;;;;;;;;5010928;28;20239;-52
2021/12/10 02:59:30;;;;;;;5.27;4.33;;;;;;;;;;5024203;28;20237;-52
2021/12/10 03:01:58;;;;;;;5.10;4.10;;;;;;;;;;5028394;28;20174;-52
2021/12/10 03:04:24;;;;;;;4.83;3.23;;;;;;;;;;5024741;28;20259;-52
2021/12/10 03:06:53;;;;;;;3.90;3.60;;;;;;;;;;5016087;28;20668;-52
2021/12/10 03:09:21;;;;;;;6.43;4.33;;;;;;;;;;5027524;28;20304;-52
2021/12/10 03:11:49;;;;;;;7.70;4.67;;;;;;;;;;4993999;28;20196;-52
2021/12/10 03:14:19;;;;;;;4.73;3.43;;;;;;;;;;5009635;28;20299;-52
2021/12/10 03:16:46;;;;;;;5.00;3.70;;;;;;;;;;5009847;28;20174;-52
2021/12/10 03:19:13;;;;;;;6.83;3.67;;;;;;;;;;5015053;28;20194;-52
2021/12/10 03:21:39;;;;;;;8.57;4.43;;;;;;;;;;5021908;28;20681;-52
2021/12/10 03:24:06;;;;;;;7.50;3.83;;;;;;;;;;5027380;28;20178;-52
2021/12/10 03:26:33;;;;;;;4.30;3.30;;;;;;;;;;5024340;28;20178;-52
2021/12/10 03:28:59;;;;;;;4.60;3.80;;;;;;;;;;5017028;28;20265;-52
2021/12/10 03:31:26;;;;;;;7.00;3.27;;;;;;;;;;5010261;28;20178;-52
2021/12/10 03:33:53;;;;;;;3.90;3.50;;;;;;;;;;5027937;28;20269;-52
2021/12/10 03:36:20;;;;;;;5.63;3.23;;;;;;;;;;5026947;28;20182;-52
2021/12/10 03:38:46;;;;;;;5.00;3.60;;;;;;;;;;5009676;28;20348;-52
2021/12/10 03:41:13;;;;;;;4.10;3.40;;;;;;;;;;5008822;28;20263;-52
2021/12/10 03:43:39;;;;;;;5.67;3.37;;;;;;;;;;5027555;28;20188;-52
2021/12/10 03:46:06;;;;;;;3.70;2.90;;;;;;;;;;5019991;28;20178;-52
2021/12/10 03:48:35;;;;;;;6.10;3.10;;;;;;;;;;5020187;28;20178;-52
2021/12/10 03:51:03;;;;;;;6.00;2.70;;;;;;;;;;5016802;28;20177;-52
2021/12/10 03:53:30;;;;;;;3.13;2.57;;;;;;;;;;5009338;28;20261;-52
2021/12/10 03:56:03;;;;;;;3.70;2.97;;;;;;;;;;5013624;28;20214;-52
2021/12/10 03:58:29;;;;;;;4.30;2.57;;;;;;;;;;5011214;28;20200;-52
2021/12/10 04:00:57;;;;;;;5.53;2.63;;;;;;;;;;5024781;28;20193;-52
2021/12/10 04:03:24;;;;;;;3.20;2.50;;;;;;;;;;5022000;28;20576;-52
2021/12/10 04:05:53;;;;;;;4.07;2.80;;;;;;;;;;5001530;28;20190;-52
2021/12/10 04:08:19;;;;;;;4.43;2.87;;;;;;;;;;5013902;28;20181;-52
2021/12/10 04:10:46;;;;;;;6.83;2.73;;;;;;;;;;5027778;28;20204;-52
2021/12/10 04:13:13;;;;;;;3.13;2.53;;;;;;;;;;5025510;28;20197;-51
2021/12/10 04:15:42;;;;;;;3.20;2.10;;;;;;;;;;5012202;28;20632;-52
2021/12/10 04:18:09;;;;;;;6.97;2.70;;;;;;;;;;4995803;28;20318;-53
2021/12/10 04:20:36;;;;;;;3.17;2.17;;;;;;;;;;5030806;28;20270;-54
2021/12/10 04:23:05;;;;;;;3.70;2.20;;;;;;;;;;5012764;28;20272;-52
2021/12/10 04:25:31;;;;;;;5.47;2.53;;;;;;;;;;5029898;28;20552;-52
2021/12/10 04:27:59;;;;;;;6.27;2.57;;;;;;;;;;5017801;28;20177;-52
2021/12/10 04:30:26;;;;;;;4.13;2.37;;;;;;;;;;5011775;28;20575;-52
2021/12/10 04:32:52;;;;;;;3.23;1.90;;;;;;;;;;5026528;28;20762;-52
2021/12/10 04:35:21;;;;;;;3.33;2.10;;;;;;;;;;5015524;28;20647;-53
2021/12/10 04:37:51;;;;;;;3.37;2.00;;;;;;;;;;5012555;28;20189;-52
2021/12/10 04:40:21;;;;;;;6.60;2.40;;;;;;;;;;5012641;28;20296;-52
2021/12/10 04:42:47;;;;;;;4.40;1.87;;;;;;;;;;5009659;28;20170;-52
2021/12/10 04:45:16;;;;;;;3.83;1.70;;;;;;;;;;5018327;28;20629;-51
2021/12/10 04:47:42;;;;;;;4.20;1.90;;;;;;;;;;5009818;28;20229;-52
2021/12/10 04:50:09;;;;;;;4.40;3.17;;;;;;;;;;5009977;28;20202;-52
2021/12/10 04:52:35;;;;;;;3.00;1.73;;;;;;;;;;5026069;28;20218;-52
2021/12/10 04:55:04;;;;;;;3.87;1.93;;;;;;;;;;4980596;28;20192;-52
2021/12/10 04:57:30;;;;;;;2.10;1.53;;;;;;;;;;5007620;28;20200;-52
2021/12/10 04:59:57;;;;;;;3.47;1.90;;;;;;;;;;4993549;28;20193;-52
2021/12/10 05:02:24;;;;;;;3.40;1.97;;;;;;;;;;5000131;28;20535;-52
2021/12/10 05:04:56;;;;;;;5.97;2.00;;;;;;;;;;4996979;28;20178;-52
2021/12/10 05:07:22;;;;;;;3.07;1.60;;;;;;;;;;5014808;28;20232;-52
2021/12/10 05:09:48;;;;;;;2.53;2.00;;;;;;;;;;5002313;28;20580;-52
2021/12/10 05:12:14;;;;;;;5.07;1.50;;;;;;;;;;5005086;28;20190;-52
2021/12/10 05:14:43;;;;;;;4.90;1.90;;;;;;;;;;4991426;28;20186;-52
2021/12/10 05:17:10;;;;;;;5.33;1.97;;;;;;;;;;5007392;28;20182;-52
2021/12/10 05:19:37;;;;;;;7.10;1.73;;;;;;;;;;5019338;28;20500;-52
2021/12/10 05:22:08;;;;;;;4.87;1.90;;;;;;;;;;5021162;28;20413;-52
2021/12/10 05:24:34;;;;;;;2.80;1.50;;;;;;;;;;5001416;28;20182;-52
2021/12/10 05:27:01;;;;;;;3.07;1.53;;;;;;;;;;4998280;28;20259;-52
2021/12/10 05:29:28;;;;;;;3.40;1.73;;;;;;;;;;4996333;28;20206;-52
2021/12/10 05:31:58;;;;;;;5.30;1.90;;;;;;;;;;4995401;28;20175;-52
2021/12/10 05:34:28;;;;;;;2.80;1.77;;;;;;;;;;4976292;28;20434;-52
2021/12/10 05:36:56;;;;;;;2.77;1.57;;;;;;;;;;4980433;28;20486;-52
2021/12/10 05:39:23;;;;;;;7.20;1.90;;;;;;;;;;5006219;28;20174;-52
2021/12/10 05:41:49;;;;;;;2.93;1.60;;;;;;;;;;5009272;28;20840;-52
2021/12/10 05:44:16;;;;;;;4.10;1.50;;;;;;;;;;5018951;28;20241;-51
2021/12/10 05:46:42;;;;;;;2.47;1.80;;;;;;;;;;5008787;28;20428;-52
2021/12/10 05:49:08;;;;;;;4.30;1.70;;;;;;;;;;4998384;28;20194;-52
2021/12/10 05:51:36;;;;;;;3.53;1.90;;;;;;;;;;5002153;28;20875;-52
2021/12/10 05:54:02;;;;;;;3.57;1.87;;;;;;;;;;4989555;28;20257;-52
2021/12/10 05:56:28;;;;;;;5.90;1.50;;;;;;;;;;4991815;28;20512;-52
2021/12/10 05:58:55;;;;;;;5.47;2.20;;;;;;;;;;5008260;28;20187;-52
2021/12/10 06:01:22;;;;;;;7.40;2.20;;;;;;;;;;4991180;28;20211;-52
2021/12/10 06:03:52;;;;;;;5.47;2.10;;;;;;;;;;4991318;28;20899;-52
2021/12/10 06:06:20;;;;;;;4.27;1.90;;;;;;;;;;4993353;28;20533;-52
2021/12/10 06:08:46;;;;;;;2.77;1.77;;;;;;;;;;5006838;28;20472;-52
2021/12/10 06:11:16;;;;;;;3.53;1.90;;;;;;;;;;5007014;28;20433;-52
2021/12/10 06:13:42;;;;;;;10.80;2.43;;;;;;;;;;4977238;28;20433;-52
2021/12/10 06:16:09;;;;;;;3.60;1.70;;;;;;;;;;5004270;28;20192;-52
2021/12/10 06:18:35;;;;;;;3.10;1.70;;;;;;;;;;4989275;28;20492;-52
2021/12/10 06:21:03;;;;;;;5.70;2.23;;;;;;;;;;5008626;28;20385;-52
2021/12/10 06:23:32;;;;;;;3.50;2.43;;;;;;;;;;4991358;28;20489;-52
2021/12/10 06:25:59;;;;;;;5.43;2.30;;;;;;;;;;5000049;28;20432;-52
2021/12/10 06:28:25;;;;;;;2.37;1.83;;;;;;;;;;5006645;28;20183;-52
2021/12/10 06:30:52;;;;;;;5.63;2.10;;;;;;;;;;4990128;28;20240;-52
2021/12/10 06:33:20;;;;;;;6.60;2.47;;;;;;;;;;4992403;28;20209;-52
2021/12/10 06:35:48;;;;;;;5.53;2.87;;;;;;;;;;5008786;28;20194;-52
2021/12/10 06:38:15;;;;;;;4.17;2.00;;;;;;;;;;4999665;28;20545;-52
2021/12/10 06:40:43;;;;;;;4.57;2.10;;;;;;;;;;5003307;28;20226;-53
2021/12/10 06:43:09;;;;;;;6.40;2.60;;;;;;;;;;4989890;28;20619;-54
2021/12/10 06:45:36;;;;;;;5.63;2.53;;;;;;;;;;5007514;28;20509;-54
2021/12/10 06:48:04;;;;;;;3.70;2.00;;;;;;;;;;5006225;28;21048;-52
2021/12/10 06:50:32;;;;;;;3.67;2.30;;;;;;;;;;5006647;28;20669;-53
2021/12/10 06:52:59;;;;;;;5.10;2.10;;;;;;;;;;5007814;28;20226;-52
2021/12/10 06:55:26;;;;;;;6.70;2.23;;;;;;;;;;5009303;28;20422;-53
2021/12/10 06:57:52;;;;;;;8.27;2.80;;;;;;;;;;4990658;28;20432;-52
2021/12/10 07:00:24;;;;;;;4.93;2.70;;;;;;;;;;5007886;28;20552;-52
2021/12/10 07:02:50;;;;;;;2.67;2.00;;;;;;;;;;4974773;28;20425;-52
2021/12/10 07:05:17;;;;;;;3.70;2.37;;;;;;;;;;4991030;28;20950;-52
2021/12/10 07:07:44;;;;;;;4.70;2.73;;;;;;;;;;4989680;28;20790;-52
2021/12/10 07:10:12;;;;;;;2.77;1.97;;;;;;;;;;5008079;28;20460;-52
2021/12/10 07:12:39;;;;;;;3.43;1.90;;;;;;;;;;4990690;28;20429;-52
2021/12/10 07:15:09;;;;;;;7.33;2.30;;;;;;;;;;4990067;28;20183;-52
2021/12/10 07:17:35;;;;;;;3.27;1.90;;;;;;;;;;4995443;28;20449;-52
2021/12/10 07:20:02;;;;;;;7.23;1.80;;;;;;;;;;5007137;28;20198;-52
2021/12/10 07:22:28;;;;;;;5.07;1.83;;;;;;;;;;5006495;28;20421;-52
2021/12/10 07:24:54;;;;;;;4.77;2.03;;;;;;;;;;4990537;28;20790;-52
2021/12/10 07:27:20;;;;;;;6.73;2.20;;;;;;;;;;4991372;28;20432;-52
2021/12/10 07:29:47;;;;;;;3.70;2.93;;;;;;;;;;5021440;28;20623;-52
2021/12/10 07:32:14;;;;;;;4.27;2.07;;;;;;;;;;4990724;28;20496;-52
2021/12/10 07:34:40;;;;;;;5.57;2.57;;;;;;;;;;5003487;28;20186;-52
2021/12/10 07:37:09;;;;;;;6.10;2.40;;;;;;;;;;5005577;28;20186;-52
2021/12/10 07:39:35;;;;;;;4.67;2.03;;;;;;;;;;4990888;28;20526;-52
2021/12/10 07:42:02;;;;;;;3.70;1.90;;;;;;;;;;5007382;28;20420;-52
2021/12/10 07:44:28;;;;;;;6.07;2.07;;;;;;;;;;5007392;28;20190;-52
2021/12/10 07:46:55;;;;;;;3.53;2.00;;;;;;;;;;4997357;28;20228;-52
2021/12/10 07:49:28;;;;;;;2.83;1.90;;;;;;;;;;4990985;28;20421;-52
2021/12/10 07:51:55;;;;;;;6.40;2.13;;;;;;;;;;5018033;28;20634;-52
2021/12/10 07:54:22;;;;;;;3.57;2.23;;;;;;;;;;5013022;28;20425;-52
2021/12/10 07:56:48;;;;;;;2.57;1.57;;;;;;;;;;5031177;28;20436;-55
2021/12/10 07:59:15;;;;;;;2.70;1.73;;;;;;;;;;5033262;28;20185;-53
2021/12/10 08:01:41;;;;;;;6.17;2.03;;;;;;;;;;5012338;28;20569;-52
2021/12/10 08:04:08;;;;;;;5.73;1.80;;;;;;;;;;5048959;28;20419;-52
2021/12/10 08:06:35;;;;;;;4.20;1.90;;;;;;;;;;5003405;28;20943;-54
2021/12/10 08:09:03;;;;;;;4.40;1.83;;;;;;;;;;5031296;28;21015;-52
2021/12/10 08:11:29;;;;;;;3.47;1.90;;;;;;;;;;5035116;28;20922;-52
2021/12/10 08:13:55;;;;;;;5.53;2.23;;;;;;;;;;5017601;28;20628;-53
2021/12/10 08:16:23;;;;;;;3.37;1.73;;;;;;;;;;5030281;28;20408;-53
2021/12/10 08:18:50;;;;;;;3.07;1.57;;;;;;;;;;5023969;28;20425;-53
2021/12/10 08:21:17;;;;;;;7.87;2.27;;;;;;;;;;5017742;28;20205;-52
2021/12/10 08:23:44;;;;;;;5.37;1.73;;;;;;;;;;5011749;28;20578;-52
2021/12/10 08:26:12;;;;;;;5.60;2.17;;;;;;;;;;5012993;28;20440;-53
2021/12/10 08:28:39;;;;;;;4.27;1.97;;;;;;;;;;5010724;28;20523;-53
2021/12/10 08:31:05;;;;;;;7.17;2.00;;;;;;;;;;5029522;28;20174;-53
2021/12/10 08:33:32;;;;;;;3.47;1.67;;;;;;;;;;5006731;28;20175;-52
2021/12/10 08:36:02;;;;;;;5.63;1.80;;;;;;;;;;5012123;28;20189;-52
2021/12/10 08:38:28;;;;;;;5.23;2.00;;;;;;;;;;5028178;28;20170;-53
2021/12/10 08:40:57;;;;;;;6.07;1.80;;;;;;;;;;5031500;28;20197;-52
2021/12/10 08:43:24;;;;;;;5.50;2.00;;;;;;;;;;5015310;28;20192;-52
2021/12/10 08:45:52;;;;;;;4.77;2.10;;;;;;;;;;5029482;28;20182;-53
2021/12/10 08:48:19;;;;;;;6.53;2.00;;;;;;;;;;5029320;28;20206;-53
2021/12/10 08:50:46;;;;;;;5.63;2.40;;;;;;;;;;5038449;28;20664;-53
2021/12/10 08:53:13;;;;;;;8.50;2.13;;;;;;;;;;5028148;28;20518;-52
2021/12/10 08:55:40;;;;;;;5.53;2.20;;;;;;;;;;5030848;28;20496;-52
2021/12/10 08:58:07;;;;;;;5.77;2.20;;;;;;;;;;5029147;28;20543;-52
2021/12/10 09:00:33;;;;;;;3.87;1.97;;;;;;;;;;5021439;28;20525;-53
2021/12/10 09:03:00;;;;;;;5.20;2.00;;;;;;;;;;5014991;28;20220;-53
2021/12/10 09:05:28;;;;;;;4.70;1.70;;;;;;;;;;5029694;28;20731;-53
2021/12/10 09:07:55;;;;;;;3.00;1.70;;;;;;;;;;5017108;28;20199;-53
2021/12/10 09:10:24;;;;;;;3.43;2.70;;;;;;;;;;5008563;28;20201;-53
2021/12/10 09:12:50;;;;;;;4.63;1.80;;;;;;;;;;5009661;28;20193;-53
2021/12/10 09:15:20;;;;;;;2.70;1.73;;;;;;;;;;5024035;28;20328;-53
2021/12/10 09:17:47;;;;;;;6.07;2.37;;;;;;;;;;5027303;28;20178;-53
2021/12/10 09:20:16;;;;;;;4.67;2.00;;;;;;;;;;5011721;28;20194;-53
2021/12/10 09:22:43;;;;;;;2.13;1.40;;;;;;;;;;5029601;28;20166;-53
2021/12/10 09:25:09;;;;;;;5.23;1.97;;;;;;;;;;5012137;28;20174;-53
2021/12/10 09:27:36;;;;;;;2.43;1.60;;;;;;;;;;5030170;28;20611;-53
2021/12/10 09:30:04;;;;;;;7.53;1.83;;;;;;;;;;5028359;28;20912;-53
2021/12/10 09:32:30;;;;;;;5.30;1.80;;;;;;;;;;5029589;28;20645;-53
2021/12/10 09:34:59;;;;;;;3.87;1.87;;;;;;;;;;5011571;28;20239;-53
2021/12/10 09:37:26;;;;;;;7.77;1.43;;;;;;;;;;5029603;28;20550;-53
2021/12/10 09:39:52;;;;;;;6.97;1.87;;;;;;;;;;5011419;28;20565;-52
2021/12/10 09:42:22;;;;;;;2.73;1.87;;;;;;;;;;5029867;28;20928;-53
2021/12/10 09:44:48;;;;;;;5.57;1.70;;;;;;;;;;5009495;28;20785;-53
2021/12/10 09:47:15;;;;;;;2.73;1.87;;;;;;;;;;5029259;28;20173;-53
2021/12/10 09:49:46;;;;;;;2.43;1.63;;;;;;;;;;5029278;28;20178;-52
2021/12/10 09:52:15;;;;;;;3.30;1.57;;;;;;;;;;5029254;28;20182;-52
2021/12/10 09:54:41;;;;;;;3.90;1.30;;;;;;;;;;5028208;28;20263;-51
2021/12/10 09:57:27;;;;;;;9.37;1.80;;;;;;;;;;5011303;28;20580;-52
2021/12/10 09:59:54;;;;;;;2.43;1.40;;;;;;;;;;5023914;28;20221;-52
2021/12/10 10:02:21;;;;;;;2.77;1.47;;;;;;;;;;5019527;28;20216;-52
2021/12/10 10:04:51;;;;;;;5.73;2.10;;;;;;;;;;5029340;28;20220;-52
2021/12/10 10:07:22;;;;;;;6.87;1.90;;;;;;;;;;5025145;28;20187;-52
2021/12/10 10:09:50;;;;;;;4.50;1.90;;;;;;;;;;5028968;28;20181;-52
2021/12/10 10:12:19;;;;;;;5.17;1.70;;;;;;;;;;5028434;28;20186;-52
2021/12/10 10:14:45;;;;;;;4.57;1.67;;;;;;;;;;5007259;28;20189;-52
2021/12/10 10:17:12;;;;;;;11.70;2.13;;;;;;;;;;5028870;28;20185;-52
2021/12/10 10:19:40;;;;;;;5.37;2.23;;;;;;;;;;5029282;28;20182;-52
2021/12/10 10:22:09;;;;;;;3.13;2.17;;;;;;;;;;5010884;28;20185;-52
2021/12/10 10:24:35;;;;;;;6.30;1.87;;;;;;;;;;5010831;28;20621;-52
2021/12/10 10:27:05;;;;;;;5.50;2.50;;;;;;;;;;5029496;28;20629;-53
2021/12/10 10:29:32;;;;;;;3.60;1.93;;;;;;;;;;5029050;28;20645;-53
2021/12/10 10:32:07;;;;;;;2.80;1.30;;;;;;;;;;5028295;28;20755;-53
2021/12/10 10:34:33;;;;;;;3.77;1.67;;;;;;;;;;5008017;28;20542;-52
2021/12/10 10:37:00;;;;;;;2.70;1.33;;;;;;;;;;4994114;28;20177;-54
2021/12/10 10:39:32;;;;;;;3.40;1.63;;;;;;;;;;5007186;28;20182;-53
2021/12/10 10:41:59;;;;;;;6.10;2.03;;;;;;;;;;5025815;28;20178;-52
2021/12/10 10:44:26;;;;;;;3.40;1.70;;;;;;;;;;5027893;28;20304;-52
2021/12/10 10:46:55;;;;;;;4.43;2.40;;;;;;;;;;5027976;28;20709;-53
2021/12/10 10:49:32;;;;;;;4.33;1.70;;;;;;;;;;5002352;28;20188;-53
2021/12/10 10:52:11;;;;;;;7.73;1.90;;;;;;;;;;5024956;28;20178;-53
2021/12/10 10:54:37;;;;;;;1.93;1.40;;;;;;;;;;5032471;28;20257;-53
2021/12/10 10:57:11;;;;;;;5.80;2.00;;;;;;;;;;5028601;28;20285;-52
2021/12/10 10:59:37;;;;;;;2.80;1.50;;;;;;;;;;5014273;28;20687;-53
2021/12/10 11:02:07;;;;;;;4.20;1.83;;;;;;;;;;5028111;28;20215;-52
2021/12/10 11:04:36;;;;;;;4.03;2.13;;;;;;;;;;5010240;28;20249;-53
2021/12/10 11:07:13;;;;;;;3.10;1.43;;;;;;;;;;5025928;28;20602;-52
2021/12/10 11:09:45;;;;;;;2.63;1.60;;;;;;;;;;5024372;28;20227;-54
2021/12/10 11:12:14;;;;;;;6.90;1.50;;;;;;;;;;5027538;28;20813;-53
2021/12/10 11:14:42;;;;;;;2.50;1.93;;;;;;;;;;5009674;28;20630;-52
2021/12/10 11:17:15;;;;;;;2.37;1.53;;;;;;;;;;5027873;28;20211;-53
2021/12/10 11:19:47;;;;;;;5.87;1.50;;;;;;;;;;5017941;28;20181;-52
2021/12/10 11:22:15;;;;;;;4.03;1.30;;;;;;;;;;5027110;28;20193;-53
2021/12/10 11:24:46;;;;;;;4.33;1.57;;;;;;;;;;5029659;28;20182;-53
2021/12/10 11:27:13;;;;;;;4.57;1.47;;;;;;;;;;5033552;28;20526;-52
2021/12/10 11:29:47;;;;;;;5.27;2.10;;;;;;;;;;5026031;28;20572;-53
2021/12/10 11:32:36;;;;;;;2.07;1.10;;;;;;;;;;5028036;28;20240;-53
2021/12/10 11:35:02;;;;;;;2.10;1.30;;;;;;;;;;4998361;28;20229;-53
2021/12/10 11:37:47;;;;;;;4.53;1.20;;;;;;;;;;5030702;28;20181;-52
2021/12/10 11:40:36;;;;;;;1.13;0.97;;;;;;;;;;5021113;28;20206;-52
2021/12/10 11:43:17;;;;;;;4.20;1.73;;;;;;;;;;5026499;28;20247;-53
2021/12/10 11:45:51;;;;;;;4.50;2.10;;;;;;;;;;5027826;28;20177;-53
2021/12/10 11:48:25;;;;;;;2.40;1.40;;;;;;;;;;5028847;28;20205;-53
2021/12/10 11:51:09;;;;;;;3.07;1.60;;;;;;;;;;5027849;28;20260;-52
2021/12/10 11:53:40;;;;;;;2.83;1.37;;;;;;;;;;5026988;28;20224;-52
2021/12/10 11:56:19;;;;;;;1.67;1.20;;;;;;;;;;5027835;28;20715;-51
2021/12/10 11:58:57;;;;;;;5.97;1.53;;;;;;;;;;5026857;28;20273;-52
2021/12/10 12:01:23;;;;;;;1.43;1.00;;;;;;;;;;5026494;28;20671;-52
2021/12/10 12:03:49;;;;;;;5.07;1.13;;;;;;;;;;5026968;28;20673;-52
2021/12/10 12:06:20;;;;;;;3.23;1.50;;;;;;;;;;5027058;28;20558;-52
2021/12/10 12:08:46;;;;;;;2.53;1.33;;;;;;;;;;5028264;28;20182;-51
2021/12/10 12:11:12;;;;;;;2.53;1.20;;;;;;;;;;5027738;28;20186;-52
2021/12/10 12:13:51;;;;;;;3.40;1.50;;;;;;;;;;5027963;28;20217;-51
2021/12/10 12:16:21;;;;;;;2.37;1.30;;;;;;;;;;5026738;28;20189;-52
2021/12/10 12:18:49;;;;;;;3.07;1.50;;;;;;;;;;5026203;28;20512;-52
2021/12/10 12:26:50;;;;;;;2.77;1.30;;;;;;;;;;5025271;28;20188;-52
2021/12/10 12:29:17;;;;;;;3.23;1.30;;;;;;;;;;5010919;28;20486;-52
2021/12/10 12:31:43;;;;;;;2.67;1.60;;;;;;;;;;5018189;28;20199;-52
2021/12/10 12:34:16;;;;;;;4.30;1.83;;;;;;;;;;5008887;28;20213;-52
2021/12/10 12:36:51;;;;;;;3.93;1.60;;;;;;;;;;5006420;28;20190;-52
2021/12/10 12:39:29;;;;;;;2.43;1.50;;;;;;;;;;5011462;28;20733;-52
2021/12/10 12:41:55;;;;;;;4.97;1.73;;;;;;;;;;5028126;28;20208;-52
2021/12/10 12:44:21;;;;;;;4.47;1.40;;;;;;;;;;5014530;28;20181;-52
2021/12/10 12:47:17;;;;;;;7.50;1.80;;;;;;;;;;5012866;28;20696;-52
2021/12/10 12:49:49;;;;;;;3.37;1.20;;;;;;;;;;5016139;28;20653;-52
2021/12/10 12:52:25;;;;;;;2.23;1.23;;;;;;;;;;5025468;28;20723;-52
2021/12/10 12:55:10;;;;;;;2.93;1.13;;;;;;;;;;5012521;28;20702;-52
2021/12/10 12:57:49;;;;;;;3.03;1.60;;;;;;;;;;5013754;28;20219;-52
2021/12/10 13:00:23;;;;;;;2.53;1.50;;;;;;;;;;5009276;28;20253;-53
2021/12/10 13:02:51;;;;;;;2.80;1.30;;;;;;;;;;5026250;28;20715;-53
2021/12/10 13:05:18;;;;;;;2.63;1.50;;;;;;;;;;5035082;28;20227;-52
2021/12/10 13:07:44;;;;;;;7.43;1.50;;;;;;;;;;5005348;28;20193;-53
2021/12/10 13:10:18;;;;;;;4.57;1.40;;;;;;;;;;5009660;28;20189;-52
2021/12/10 13:15:15;;;;;;;2.63;1.50;;;;;;;;;;5039019;28;20185;-52
2021/12/10 13:17:45;;;;;;;3.20;1.60;;;;;;;;;;5015941;28;20649;-52
2021/12/10 13:20:14;;;;;;;1.57;1.47;;;;;;;;;;5023688;28;20573;-52
2021/12/10 13:22:41;;;;;;;3.43;1.40;;;;;;;;;;5011473;28;20182;-52
2021/12/10 13:25:09;;;;;;;1.63;1.20;;;;;;;;;;5011513;28;20178;-52
2021/12/10 13:27:37;;;;;;;3.30;1.67;;;;;;;;;;5020554;28;20359;-53
2021/12/10 13:30:07;;;;;;;6.00;1.47;;;;;;;;;;5028984;28;20277;-52
2021/12/10 13:32:33;;;;;;;4.33;1.50;;;;;;;;;;5012167;28;20182;-52
2021/12/10 13:34:59;;;;;;;1.67;1.40;;;;;;;;;;5011283;28;20652;-52
2021/12/10 13:37:26;;;;;;;1.93;1.50;;;;;;;;;;5010940;28;21690;-53
2021/12/10 13:39:57;;;;;;;5.43;1.83;;;;;;;;;;5011446;28;20304;-52
2021/12/10 13:42:24;;;;;;;8.77;1.50;;;;;;;;;;5024411;28;20178;-53
2021/12/10 13:44:54;;;;;;;2.37;1.20;;;;;;;;;;5030816;28;20621;-53
2021/12/10 13:47:39;;;;;;;3.23;1.43;;;;;;;;;;5029275;28;20645;-53
2021/12/10 13:50:05;;;;;;;1.57;1.30;;;;;;;;;;5018206;28;20257;-52
2021/12/10 13:52:34;;;;;;;6.83;1.40;;;;;;;;;;5028290;28;20268;-52
2021/12/10 13:55:00;;;;;;;3.40;1.60;;;;;;;;;;5028190;28;20174;-53
2021/12/10 13:57:27;;;;;;;2.57;1.70;;;;;;;;;;5020217;28;20220;-53
2021/12/10 13:59:57;;;;;;;2.27;1.50;;;;;;;;;;5008955;28;20189;-53
2021/12/10 14:02:32;;;;;;;2.97;1.47;;;;;;;;;;5019182;28;20292;-53
2021/12/10 14:04:59;;;;;;;4.57;1.43;;;;;;;;;;5006683;28;20622;-53
2021/12/10 14:07:29;;;;;;;2.63;1.40;;;;;;;;;;5010265;28;20214;-53
2021/12/10 14:09:58;;;;;;;1.87;1.43;;;;;;;;;;5027657;28;20189;-52
2021/12/10 14:12:43;;;;;;;3.43;1.70;;;;;;;;;;5006742;28;20296;-53
2021/12/10 14:15:17;;;;;;;5.13;1.57;;;;;;;;;;5009068;28;20208;-53
2021/12/10 14:17:56;;;;;;;1.60;1.40;;;;;;;;;;5011213;28;20549;-53
2021/12/10 14:20:29;;;;;;;3.87;1.57;;;;;;;;;;5025138;28;20202;-53
2021/12/10 14:22:56;;;;;;;5.17;1.50;;;;;;;;;;5030196;28;20186;-52
2021/12/10 14:25:28;;;;;;;2.20;1.90;;;;;;;;;;5013853;28;20177;-52
2021/12/10 14:28:00;;;;;;;2.17;1.60;;;;;;;;;;5030546;28;20188;-53
2021/12/10 14:30:31;;;;;;;3.17;1.50;;;;;;;;;;4999991;28;20618;-53
2021/12/10 14:33:06;;;;;;;1.90;1.37;;;;;;;;;;5008434;28;20192;-52
2021/12/10 14:35:42;;;;;;;4.80;1.67;;;;;;;;;;5006965;28;20569;-53
2021/12/10 14:38:08;;;;;;;4.23;1.77;;;;;;;;;;5022717;28;20189;-53
2021/12/10 14:40:43;;;;;;;1.57;1.30;;;;;;;;;;5010017;28;20202;-53
2021/12/10 14:43:12;;;;;;;1.73;1.27;;;;;;;;;;5025718;28;20694;-53
2021/12/10 14:45:57;;;;;;;4.67;2.57;;;;;;;;;;5023815;28;20174;-53
2021/12/10 14:48:24;;;;;;;1.90;1.27;;;;;;;;;;5023635;28;20217;-52
2021/12/10 14:50:59;;;;;;;2.87;1.60;;;;;;;;;;5008717;28;20178;-53
2021/12/10 14:53:34;;;;;;;2.93;1.70;;;;;;;;;;5027460;28;20282;-53
2021/12/10 14:56:28;;;;;;;2.87;1.37;;;;;;;;;;5012916;28;20574;-53
2021/12/10 14:59:02;;;;;;;5.47;1.70;;;;;;;;;;5016140;28;20268;-52
2021/12/10 15:01:29;;;;;;;1.80;1.57;;;;;;;;;;5007035;28;20232;-52
2021/12/10 15:03:55;;;;;;;2.97;1.67;;;;;;;;;;5010657;28;20885;-53
2021/12/10 15:06:22;;;;;;;2.57;1.67;;;;;;;;;;5009559;28;20267;-52
2021/12/10 15:08:57;;;;;;;2.60;1.90;;;;;;;;;;5024676;28;20417;-52